createdAt,value
2018-11-26T00:01:15.995Z,4.80
2018-11-26T00:03:45.211Z,4.67
2018-11-26T00:06:14.408Z,4.80
2018-11-26T00:08:43.648Z,4.97
2018-11-26T00:11:44.044Z,4.63
2018-11-26T00:14:13.214Z,4.70
2018-11-26T00:16:42.629Z,4.77
2018-11-26T00:19:11.814Z,4.40
2018-11-26T00:21:41.013Z,4.73
2018-11-26T00:24:10.364Z,4.30
2018-11-26T00:26:39.672Z,4.80
2018-11-26T00:29:08.914Z,4.20
2018-11-26T00:31:38.132Z,4.60
2018-11-26T00:34:07.310Z,4.77
2018-11-26T00:36:36.570Z,4.73
2018-11-26T00:39:09.038Z,4.30
2018-11-26T00:41:38.233Z,4.20
2018-11-26T00:44:07.929Z,4.10
2018-11-26T00:46:37.148Z,4.27
2018-11-26T00:49:06.345Z,4.30
2018-11-26T00:51:35.540Z,4.30
2018-11-26T00:54:04.714Z,4.40
2018-11-26T00:56:34.185Z,4.03
2018-11-26T00:59:03.413Z,4.87
2018-11-26T01:01:32.595Z,4.50
2018-11-26T01:04:01.811Z,4.10
2018-11-26T01:06:31.012Z,4.37
2018-11-26T01:09:00.230Z,4.23
2018-11-26T01:11:29.426Z,3.67
2018-11-26T01:13:58.630Z,3.73
2018-11-26T01:16:27.824Z,3.90
2018-11-26T01:18:57.032Z,4.37
2018-11-26T01:21:26.577Z,4.13
2018-11-26T01:23:55.805Z,3.83
2018-11-26T01:26:25.005Z,4.00
2018-11-26T01:28:54.382Z,3.97
2018-11-26T01:31:23.574Z,3.80
2018-11-26T01:33:52.874Z,4.20
2018-11-26T01:36:22.096Z,3.60
2018-11-26T01:38:51.331Z,3.80
2018-11-26T01:41:20.533Z,3.60
2018-11-26T01:43:49.722Z,3.73
2018-11-26T01:46:18.918Z,3.60
2018-11-26T01:48:48.121Z,4.00
2018-11-26T01:51:17.328Z,3.67
2018-11-26T01:53:46.529Z,5.47
2018-11-26T01:56:15.714Z,4.10
2018-11-26T01:58:44.917Z,3.50
2018-11-26T02:01:14.156Z,3.83
2018-11-26T02:03:43.354Z,3.60
2018-11-26T02:06:12.553Z,3.60
2018-11-26T02:08:41.808Z,3.67
2018-11-26T02:11:10.998Z,3.63
2018-11-26T02:13:40.199Z,3.50
2018-11-26T02:16:09.402Z,3.70
2018-11-26T02:18:38.606Z,3.60
2018-11-26T02:21:07.842Z,4.40
2018-11-26T02:23:37.036Z,3.80
2018-11-26T02:26:06.651Z,3.20
2018-11-26T02:28:35.897Z,3.73
2018-11-26T02:31:05.213Z,3.37
2018-11-26T02:33:34.467Z,3.20
2018-11-26T02:36:03.644Z,3.40
2018-11-26T02:38:32.903Z,3.57
2018-11-26T02:41:02.094Z,3.20
2018-11-26T02:43:31.294Z,3.70
2018-11-26T02:46:00.492Z,3.23
2018-11-26T02:48:29.701Z,3.77
2018-11-26T02:50:58.894Z,3.23
2018-11-26T02:53:28.103Z,2.80
2018-11-26T02:55:57.287Z,3.30
2018-11-26T02:58:26.568Z,3.87
2018-11-26T03:00:55.761Z,3.43
2018-11-26T03:03:25.008Z,3.50
2018-11-26T03:05:54.225Z,3.07
2018-11-26T03:08:23.486Z,3.47
2018-11-26T03:10:52.673Z,2.93
2018-11-26T03:13:21.873Z,2.93
2018-11-26T03:15:51.065Z,3.63
2018-11-26T03:18:20.273Z,3.43
2018-11-26T03:20:49.469Z,2.97
2018-11-26T03:23:18.666Z,3.13
2018-11-26T03:25:47.861Z,2.90
2018-11-26T03:28:17.071Z,2.70
2018-11-26T03:30:46.306Z,3.10
2018-11-26T03:33:15.637Z,3.10
2018-11-26T03:35:44.864Z,4.67
2018-11-26T03:38:16.077Z,2.73
2018-11-26T03:40:45.274Z,2.87
2018-11-26T03:43:14.474Z,3.10
2018-11-26T03:45:43.669Z,2.90
2018-11-26T03:48:12.897Z,2.83
2018-11-26T03:50:42.095Z,2.63
2018-11-26T03:53:11.304Z,3.30
2018-11-26T03:55:40.541Z,2.90
2018-11-26T03:58:09.800Z,2.60
2018-11-26T04:00:39.002Z,2.97
2018-11-26T04:03:08.205Z,2.87
2018-11-26T04:05:43.986Z,2.87
2018-11-26T04:08:13.257Z,3.57
2018-11-26T04:10:42.487Z,2.93
2018-11-26T04:13:11.709Z,3.37
2018-11-26T04:15:40.904Z,3.50
2018-11-26T04:18:10.138Z,2.73
2018-11-26T04:20:39.346Z,2.90
2018-11-26T04:23:08.549Z,2.43
2018-11-26T04:25:37.778Z,2.67
2018-11-26T04:28:07.418Z,2.90
2018-11-26T04:30:36.650Z,3.00
2018-11-26T04:33:06.086Z,3.13
2018-11-26T04:35:35.357Z,3.23
2018-11-26T04:38:04.653Z,3.13
2018-11-26T04:40:33.907Z,3.17
2018-11-26T04:43:03.134Z,3.00
2018-11-26T04:45:32.316Z,2.73
2018-11-26T04:48:01.539Z,3.13
2018-11-26T04:50:30.740Z,2.77
2018-11-26T04:52:59.935Z,2.97
2018-11-26T04:55:29.132Z,3.20
2018-11-26T04:57:58.373Z,2.73
2018-11-26T05:00:27.559Z,2.77
2018-11-26T05:02:56.757Z,3.13
2018-11-26T05:05:25.996Z,2.70
2018-11-26T05:07:55.542Z,2.97
2018-11-26T05:10:24.739Z,4.00
2018-11-26T05:12:54.077Z,3.67
2018-11-26T05:15:23.332Z,3.43
2018-11-26T05:17:52.580Z,3.33
2018-11-26T05:20:21.828Z,3.70
2018-11-26T05:22:51.022Z,5.10
2018-11-26T05:25:20.238Z,3.97
2018-11-26T05:27:49.599Z,4.50
2018-11-26T05:30:18.812Z,3.50
2018-11-26T05:32:48.003Z,4.20
2018-11-26T05:35:17.189Z,3.70
2018-11-26T05:37:46.539Z,3.93
2018-11-26T05:40:15.998Z,6.67
2018-11-26T05:42:45.295Z,6.37
2018-11-26T05:45:15.658Z,5.07
2018-11-26T05:47:45.025Z,4.80
2018-11-26T05:50:15.176Z,4.40
2018-11-26T05:52:44.385Z,6.33
2018-11-26T05:55:14.791Z,5.20
2018-11-26T05:57:44.573Z,5.43
2018-11-26T06:00:21.254Z,5.40
2018-11-26T06:02:50.442Z,4.13
2018-11-26T06:05:19.681Z,8.05
2018-11-26T06:07:48.924Z,8.50
2018-11-26T06:10:18.181Z,8.60
2018-11-26T06:12:47.385Z,6.23
2018-11-26T06:15:16.749Z,6.03
2018-11-26T06:17:46.066Z,6.00
2018-11-26T06:20:15.323Z,5.37
2018-11-26T06:22:45.715Z,5.47
2018-11-26T06:25:19.067Z,5.07
2018-11-26T06:27:48.507Z,5.73
2018-11-26T06:30:18.961Z,6.17
2018-11-26T06:32:48.393Z,7.60
2018-11-26T06:35:24.267Z,4.43
2018-11-26T06:37:54.172Z,4.60
2018-11-26T06:40:22.937Z,4.10
2018-11-26T06:42:52.201Z,6.37
2018-11-26T06:45:22.825Z,5.07
2018-11-26T06:47:52.269Z,4.63
2018-11-26T06:50:21.925Z,4.50
2018-11-26T06:52:51.184Z,7.30
2018-11-26T06:55:21.567Z,5.27
2018-11-26T06:57:50.945Z,4.80
2018-11-26T07:00:20.953Z,4.03
2018-11-26T07:02:50.172Z,4.70
2018-11-26T07:05:22.443Z,4.17
2018-11-26T07:07:51.815Z,4.90
2018-11-26T07:10:21.759Z,4.33
2018-11-26T07:12:51.329Z,5.10
2018-11-26T07:15:22.001Z,4.50
2018-11-26T07:17:51.622Z,4.90
2018-11-26T07:20:21.704Z,4.83
2018-11-26T07:22:51.009Z,4.33
2018-11-26T07:25:21.603Z,6.37
2018-11-26T07:27:53.182Z,4.67
2018-11-26T07:30:25.747Z,4.33
2018-11-26T07:32:55.024Z,5.40
2018-11-26T07:35:24.246Z,4.00
2018-11-26T07:37:53.593Z,4.00
2018-11-26T07:40:23.641Z,4.40
2018-11-26T07:42:54.659Z,4.90
2018-11-26T07:45:23.998Z,4.33
2018-11-26T07:47:53.257Z,3.73
2018-11-26T07:50:22.466Z,4.33
2018-11-26T07:52:51.724Z,4.00
2018-11-26T07:55:21.787Z,4.43
2018-11-26T07:57:51.141Z,4.83
2018-11-26T08:00:21.492Z,4.10
2018-11-26T08:02:51.078Z,4.13
2018-11-26T08:05:22.092Z,4.33
2018-11-26T08:07:51.412Z,4.20
2018-11-26T08:10:21.619Z,4.10
2018-11-26T08:12:51.857Z,4.23
2018-11-26T08:15:23.143Z,4.43
2018-11-26T08:17:52.512Z,4.00
2018-11-26T08:20:21.758Z,4.10
2018-11-26T08:22:51.047Z,3.73
2018-11-26T08:25:21.354Z,4.30
2018-11-26T08:27:51.141Z,3.87
2018-11-26T08:30:23.287Z,4.50
2018-11-26T08:32:55.853Z,4.30
2018-11-26T08:35:25.193Z,4.23
2018-11-26T08:39:01.357Z,4.23
2018-11-26T08:41:36.731Z,3.77
2018-11-26T08:44:11.436Z,3.97
2018-11-26T08:46:46.157Z,3.93
2018-11-26T08:49:19.241Z,3.40
2018-11-26T08:51:48.478Z,4.33
2018-11-26T08:54:17.743Z,3.50
2018-11-26T08:56:46.983Z,3.63
2018-11-26T08:59:16.245Z,3.40
2018-11-26T09:01:50.456Z,4.00
2018-11-26T09:04:21.319Z,3.67
2018-11-26T09:06:50.592Z,3.80
2018-11-26T09:09:19.838Z,3.50
2018-11-26T09:11:49.103Z,3.63
2018-11-26T09:14:18.342Z,3.43
2018-11-26T09:16:47.857Z,3.83
2018-11-26T09:19:17.121Z,3.33
2018-11-26T09:21:46.368Z,3.47
2018-11-26T09:24:15.620Z,3.63
2018-11-26T09:26:44.891Z,3.90
2018-11-26T09:29:14.113Z,3.93
2018-11-26T09:31:43.416Z,4.30
2018-11-26T09:34:12.653Z,3.93
2018-11-26T09:36:41.889Z,3.63
2018-11-26T09:39:11.737Z,4.73
2018-11-26T09:41:41.160Z,3.63
2018-11-26T09:44:10.429Z,4.13
2018-11-26T09:46:39.814Z,4.27
2018-11-26T09:49:11.463Z,4.57
2018-11-26T09:51:42.275Z,5.43
2018-11-26T09:54:10.209Z,4.70
2018-11-26T09:56:39.443Z,3.87
2018-11-26T09:59:08.659Z,3.83
2018-11-26T10:01:37.970Z,4.23
2018-11-26T10:04:07.218Z,4.30
2018-11-26T10:06:36.469Z,4.03
2018-11-26T10:09:09.688Z,4.00
2018-11-26T10:11:38.957Z,3.90
2018-11-26T10:14:09.034Z,3.70
2018-11-26T10:16:38.248Z,4.50
2018-11-26T10:19:07.485Z,4.90
2018-11-26T10:21:36.809Z,4.40
2018-11-26T10:24:06.209Z,3.87
2018-11-26T10:26:35.479Z,3.63
2018-11-26T10:29:04.757Z,4.10
2018-11-26T10:31:34.025Z,3.80
2018-11-26T10:34:03.310Z,4.10
2018-11-26T10:36:32.550Z,3.93
2018-11-26T10:39:01.863Z,4.00
2018-11-26T10:41:31.077Z,3.67
2018-11-26T10:44:00.270Z,3.93
2018-11-26T10:46:29.500Z,4.00
2018-11-26T10:48:58.795Z,3.37
2018-11-26T10:51:28.021Z,3.77
2018-11-26T10:53:57.400Z,3.30
2018-11-26T10:56:26.699Z,3.40
2018-11-26T10:58:55.963Z,4.03
2018-11-26T11:01:30.130Z,3.97
2018-11-26T11:03:59.394Z,4.47
2018-11-26T11:06:28.705Z,3.43
2018-11-26T11:08:58.002Z,3.50
2018-11-26T11:11:27.282Z,4.10
2018-11-26T11:13:56.490Z,3.53
2018-11-26T11:16:25.735Z,3.17
2018-11-26T11:18:55.122Z,3.17
2018-11-26T11:21:24.322Z,3.70
2018-11-26T11:23:53.645Z,3.40
2018-11-26T11:26:23.203Z,3.27
2018-11-26T11:28:52.537Z,4.03
2018-11-26T11:31:21.734Z,3.77
2018-11-26T11:33:50.984Z,3.43
2018-11-26T11:36:20.198Z,3.10
2018-11-26T11:38:49.498Z,3.33
2018-11-26T11:41:18.819Z,3.53
2018-11-26T11:43:48.063Z,3.47
2018-11-26T11:46:17.324Z,3.07
2018-11-26T11:48:46.628Z,3.47
2018-11-26T11:51:15.835Z,2.67
2018-11-26T11:53:45.099Z,3.40
2018-11-26T11:56:14.295Z,3.17
2018-11-26T11:58:43.738Z,3.00
2018-11-26T12:01:13.122Z,3.53
2018-11-26T12:03:42.347Z,3.13
2018-11-26T12:06:11.595Z,3.20
2018-11-26T12:08:40.909Z,3.17
2018-11-26T12:11:10.324Z,3.17
2018-11-26T12:13:39.567Z,3.10
2018-11-26T12:16:08.798Z,3.90
2018-11-26T12:18:38.114Z,3.30
2018-11-26T12:21:07.342Z,3.07
2018-11-26T12:23:36.614Z,3.63
2018-11-26T12:26:06.385Z,2.97
2018-11-26T12:28:35.693Z,3.37
2018-11-26T12:31:05.099Z,3.00
2018-11-26T12:33:34.306Z,2.83
2018-11-26T12:36:03.559Z,3.20
2018-11-26T12:38:32.916Z,3.20
2018-11-26T12:41:02.139Z,3.47
2018-11-26T12:43:31.452Z,3.13
2018-11-26T12:46:00.708Z,3.80
2018-11-26T12:48:30.015Z,3.87
2018-11-26T12:50:59.207Z,3.37
2018-11-26T12:53:28.466Z,3.40
2018-11-26T12:55:57.707Z,3.30
2018-11-26T12:58:27.008Z,3.30
2018-11-26T13:00:56.232Z,3.33
2018-11-26T13:03:25.548Z,3.37
2018-11-26T13:05:54.806Z,3.50
2018-11-26T13:08:24.128Z,3.30
2018-11-26T13:10:53.350Z,2.83
2018-11-26T13:13:22.559Z,3.23
2018-11-26T13:15:51.806Z,3.00
2018-11-26T13:18:21.104Z,2.93
2018-11-26T13:20:50.309Z,3.30
2018-11-26T13:23:19.554Z,2.97
2018-11-26T13:25:48.819Z,3.43
2018-11-26T13:28:18.119Z,3.10
2018-11-26T13:30:49.270Z,3.00
2018-11-26T13:33:19.455Z,2.60
2018-11-26T13:35:49.864Z,3.20
2018-11-26T13:38:19.089Z,3.57
2018-11-26T13:40:48.314Z,3.40
2018-11-26T13:43:18.326Z,3.23
2018-11-26T13:45:48.824Z,2.70
2018-11-26T13:48:19.146Z,3.00
2018-11-26T13:50:53.778Z,3.00
2018-11-26T13:53:23.007Z,3.03
2018-11-26T13:55:52.290Z,2.90
2018-11-26T13:58:21.572Z,2.60
2018-11-26T14:00:50.802Z,2.50
2018-11-26T14:03:20.046Z,2.90
2018-11-26T14:05:49.338Z,2.83
2018-11-26T14:08:18.820Z,2.50
2018-11-26T14:10:48.096Z,3.00
2018-11-26T14:13:17.589Z,2.57
2018-11-26T14:15:46.937Z,2.53
2018-11-26T14:18:16.297Z,2.30
2018-11-26T14:20:45.626Z,2.30
2018-11-26T14:23:14.896Z,2.40
2018-11-26T14:25:44.152Z,2.37
2018-11-26T14:28:13.449Z,2.40
2018-11-26T14:30:42.629Z,2.60
2018-11-26T14:33:12.062Z,2.90
2018-11-26T14:35:41.284Z,2.20
2018-11-26T14:38:10.832Z,2.40
2018-11-26T14:40:44.808Z,1.73
2018-11-26T14:43:14.068Z,1.87
2018-11-26T14:45:43.299Z,2.60
2018-11-26T14:48:12.562Z,2.20
2018-11-26T14:50:41.794Z,2.13
2018-11-26T14:53:13.775Z,2.00
2018-11-26T14:55:42.991Z,2.10
2018-11-26T14:58:12.386Z,2.30
2018-11-26T15:00:41.676Z,2.10
2018-11-26T15:03:11.818Z,1.97
2018-11-26T15:05:41.028Z,1.83
2018-11-26T15:08:10.362Z,1.80
2018-11-26T15:10:39.728Z,2.17
2018-11-26T15:13:08.995Z,1.50
2018-11-26T15:15:38.282Z,2.07
2018-11-26T15:18:07.593Z,1.97
2018-11-26T15:20:36.822Z,1.53
2018-11-26T15:23:06.348Z,2.07
2018-11-26T15:25:35.687Z,1.60
2018-11-26T15:28:08.143Z,1.87
2018-11-26T15:30:37.442Z,2.07
2018-11-26T15:33:06.880Z,2.07
2018-11-26T15:35:36.207Z,2.43
2018-11-26T15:38:05.665Z,1.80
2018-11-26T15:40:35.034Z,1.70
2018-11-26T15:43:04.304Z,1.80
2018-11-26T15:45:33.788Z,1.70
2018-11-26T15:48:05.034Z,1.67
2018-11-26T15:50:34.242Z,1.70
2018-11-26T15:53:03.467Z,1.50
2018-11-26T15:55:32.698Z,1.70
2018-11-26T15:58:02.038Z,1.63
2018-11-26T16:00:31.271Z,1.83
2018-11-26T16:03:00.482Z,2.00
2018-11-26T16:05:31.058Z,1.93
2018-11-26T16:08:06.197Z,1.63
2018-11-26T16:10:35.544Z,1.60
2018-11-26T16:13:06.309Z,2.07
2018-11-26T16:15:40.061Z,1.90
2018-11-26T16:18:13.870Z,1.97
2018-11-26T16:20:43.110Z,1.50
2018-11-26T16:23:12.575Z,1.70
2018-11-26T16:25:43.250Z,1.63
2018-11-26T16:28:15.286Z,1.70
2018-11-26T16:30:44.551Z,1.83
2018-11-26T16:33:13.847Z,1.40
2018-11-26T16:35:43.043Z,2.10
2018-11-26T16:38:12.846Z,1.87
2018-11-26T16:40:42.150Z,1.57
2018-11-26T16:43:11.442Z,1.63
2018-11-26T16:45:40.695Z,1.40
2018-11-26T16:48:10.028Z,1.43
2018-11-26T16:50:39.357Z,1.50
2018-11-26T16:53:08.787Z,2.27
2018-11-26T16:55:38.026Z,2.97
2018-11-26T16:58:07.295Z,3.47
2018-11-26T17:00:36.568Z,3.73
2018-11-26T17:03:05.999Z,2.03
2018-11-26T17:05:39.455Z,5.37
2018-11-26T17:08:12.127Z,5.00
2018-11-26T17:10:41.711Z,3.23
2018-11-26T17:13:12.318Z,5.00
2018-11-26T17:15:41.584Z,4.33
2018-11-26T17:18:10.876Z,3.73
2018-11-26T17:20:40.126Z,15.13
2018-11-26T17:23:09.451Z,16.57
2018-11-26T17:25:38.787Z,14.70
2018-11-26T17:28:08.254Z,11.80
2018-11-26T17:30:38.473Z,9.23
2018-11-26T17:33:09.436Z,8.37
2018-11-26T17:35:38.690Z,7.47
2018-11-26T17:38:08.176Z,6.60
2018-11-26T17:40:37.979Z,6.23
2018-11-26T17:43:08.295Z,5.63
2018-11-26T17:45:37.556Z,5.57
2018-11-26T17:48:07.524Z,5.10
2018-11-26T17:50:40.120Z,6.83
2018-11-26T17:53:12.164Z,4.27
2018-11-26T17:55:49.961Z,4.10
2018-11-26T17:58:20.244Z,4.00
2018-11-26T18:00:52.694Z,3.30
2018-11-26T18:03:21.896Z,4.50
2018-11-26T18:05:51.128Z,5.00
2018-11-26T18:08:20.579Z,4.17
2018-11-26T18:10:49.837Z,7.60
2018-11-26T18:13:19.234Z,4.40
2018-11-26T18:15:48.556Z,4.80
2018-11-26T18:18:19.691Z,6.90
2018-11-26T18:20:49.264Z,6.20
2018-11-26T18:23:18.542Z,6.10
2018-11-26T18:25:47.838Z,2.83
2018-11-26T18:28:17.983Z,5.67
2018-11-26T18:30:49.555Z,10.40
2018-11-26T18:33:18.810Z,3.47
2018-11-26T18:35:48.685Z,5.77
2018-11-26T18:38:18.397Z,3.30
2018-11-26T18:40:49.335Z,4.70
2018-11-26T18:43:18.631Z,2.93
2018-11-26T18:45:48.071Z,4.20
2018-11-26T18:48:17.496Z,2.73
2018-11-26T18:50:46.803Z,3.37
2018-11-26T18:53:16.087Z,3.53
2018-11-26T18:55:45.304Z,4.83
2018-11-26T18:58:14.647Z,2.30
2018-11-26T19:00:49.435Z,2.00
2018-11-26T19:03:20.717Z,2.87
2018-11-26T19:05:52.191Z,3.00
2018-11-26T19:08:21.435Z,3.30
2018-11-26T19:10:53.299Z,3.70
2018-11-26T19:13:27.359Z,3.37
2018-11-26T19:16:01.306Z,5.97
2018-11-26T19:18:30.639Z,3.87
2018-11-26T19:20:59.892Z,3.93
2018-11-26T19:23:29.523Z,4.00
2018-11-26T19:25:58.759Z,3.33
2018-11-26T19:28:28.073Z,4.07
2018-11-26T19:30:57.423Z,4.63
2018-11-26T19:33:26.680Z,3.60
2018-11-26T19:35:55.896Z,6.40
2018-11-26T19:38:25.230Z,3.40
2018-11-26T19:40:54.478Z,4.07
2018-11-26T19:43:24.163Z,3.67
2018-11-26T19:45:53.499Z,4.00
2018-11-26T19:48:22.856Z,3.27
2018-11-26T19:50:52.091Z,2.60
2018-11-26T19:53:21.364Z,3.77
2018-11-26T19:55:51.521Z,3.07
2018-11-26T19:58:20.038Z,2.60
2018-11-26T20:00:49.387Z,2.73
2018-11-26T20:03:21.322Z,4.87
2018-11-26T20:06:00.048Z,2.57
2018-11-26T20:08:29.300Z,2.27
2018-11-26T20:10:58.472Z,2.03
2018-11-26T20:13:27.746Z,2.40
2018-11-26T20:15:56.949Z,2.90
2018-11-26T20:18:28.492Z,1.93
2018-11-26T20:20:55.443Z,2.00
2018-11-26T20:23:24.642Z,2.17
2018-11-26T20:25:53.982Z,2.30
2018-11-26T20:28:23.280Z,2.80
2018-11-26T20:30:52.468Z,2.43
2018-11-26T20:33:22.020Z,2.40
2018-11-26T20:35:51.212Z,2.27
2018-11-26T20:38:20.417Z,3.03
2018-11-26T20:40:49.594Z,1.80
2018-11-26T20:43:18.910Z,1.90
2018-11-26T20:45:49.340Z,2.63
2018-11-26T20:48:18.640Z,2.20
2018-11-26T20:50:51.286Z,2.10
2018-11-26T20:53:25.107Z,3.50
2018-11-26T20:55:54.353Z,3.10
2018-11-26T20:58:23.698Z,1.80
2018-11-26T21:00:52.956Z,2.03
2018-11-26T21:03:22.154Z,1.60
2018-11-26T21:05:51.340Z,2.70
2018-11-26T21:08:20.638Z,1.67
2018-11-26T21:10:49.852Z,1.70
2018-11-26T21:13:19.050Z,1.70
2018-11-26T21:15:48.246Z,1.90
2018-11-26T21:18:17.622Z,1.70
2018-11-26T21:20:49.242Z,1.60
2018-11-26T21:23:19.865Z,2.03
2018-11-26T21:25:49.136Z,2.80
2018-11-26T21:28:18.363Z,1.57
2018-11-26T21:30:52.072Z,1.60
2018-11-26T21:33:17.059Z,1.73
2018-11-26T21:35:46.267Z,2.07
2018-11-26T21:38:15.574Z,2.10
2018-11-26T21:40:44.755Z,1.67
2018-11-26T21:43:13.950Z,1.80
2018-11-26T21:45:45.012Z,1.80
2018-11-26T21:48:14.306Z,1.70
2018-11-26T21:50:43.607Z,1.70
2018-11-26T21:53:12.799Z,2.10
2018-11-26T21:55:41.990Z,1.53
2018-11-26T21:58:11.186Z,1.63
2018-11-26T22:00:41.051Z,1.53
2018-11-26T22:03:11.507Z,1.50
2018-11-26T22:05:41.758Z,1.70
2018-11-26T22:08:11.819Z,4.10
2018-11-26T22:10:42.201Z,2.13
2018-11-26T22:13:12.879Z,1.40
2018-11-26T22:15:42.078Z,1.50
2018-11-26T22:18:11.335Z,1.53
2018-11-26T22:20:40.570Z,1.30
2018-11-26T22:23:10.106Z,1.53
2018-11-26T22:25:39.303Z,1.40
2018-11-26T22:28:10.683Z,2.03
2018-11-26T22:30:40.406Z,1.70
2018-11-26T22:33:09.907Z,1.43
2018-11-26T22:35:39.123Z,1.70
2018-11-26T22:38:08.439Z,1.60
2018-11-26T22:40:37.639Z,1.40
2018-11-26T22:43:07.496Z,1.70
2018-11-26T22:45:36.566Z,1.40
2018-11-26T22:48:10.760Z,1.60
2018-11-26T22:50:43.097Z,1.53
2018-11-26T22:53:12.430Z,1.83
2018-11-26T22:55:41.688Z,2.00
2018-11-26T22:58:14.072Z,1.50
2018-11-26T23:00:53.994Z,2.03
2018-11-26T23:03:24.762Z,1.63
2018-11-26T23:05:54.632Z,1.77
2018-11-26T23:08:23.857Z,2.33
2018-11-26T23:10:53.056Z,1.70
2018-11-26T23:13:22.255Z,1.60
2018-11-26T23:15:51.463Z,2.20
2018-11-26T23:18:20.759Z,1.80
2018-11-26T23:20:49.960Z,1.97
2018-11-26T23:23:19.248Z,1.70
2018-11-26T23:25:48.446Z,2.13
2018-11-26T23:28:17.652Z,2.00
2018-11-26T23:30:46.854Z,2.10
2018-11-26T23:33:16.054Z,1.97
2018-11-26T23:35:45.282Z,1.97
2018-11-26T23:38:14.608Z,1.70
2018-11-26T23:40:43.820Z,2.63
2018-11-26T23:43:13.015Z,2.00
2018-11-26T23:45:42.245Z,1.73
2018-11-26T23:48:11.584Z,1.83
2018-11-26T23:50:40.810Z,1.70
2018-11-26T23:53:10.032Z,2.03
2018-11-26T23:55:39.316Z,2.00
2018-11-26T23:58:08.538Z,1.73
